Time;durP1;ratioP1;P1;durP2;ratioP2;P2;SDS_P1;SDS_P2;PMS_P1;PMS_P2;Temp;Humidity;BMP_temperature;BMP_pressure;BME280_temperature;BME280_humidity;BME280_pressure;Samples;Min_cycle;Max_cycle;Signal;HPM_P1;HPM_P2
2023/06/25 00:01:05;;;;;;;5.93;2.28;;;;;;;26.08;94.30;99931.25;5052415;28;20207;-71
2023/06/25 00:03:32;;;;;;;4.57;1.90;;;;;;;26.08;94.56;99939.22;5052391;28;20294;-72
2023/06/25 00:05:58;;;;;;;5.40;2.17;;;;;;;25.90;94.09;99926.03;5052404;28;20203;-71
2023/06/25 00:08:27;;;;;;;5.65;2.25;;;;;;;25.85;96.90;99939.53;5052550;28;20207;-71
2023/06/25 00:10:54;;;;;;;5.57;2.10;;;;;;;25.67;99.27;99945.75;5052119;28;20666;-71
2023/06/25 00:13:20;;;;;;;5.60;2.17;;;;;;;25.74;99.77;99952.50;5052247;28;20674;-72
2023/06/25 00:15:47;;;;;;;4.88;2.05;;;;;;;25.55;100.00;99963.13;5033538;28;20207;-71
2023/06/25 00:18:14;;;;;;;5.13;2.00;;;;;;;25.59;100.00;99964.72;5051976;28;20227;-72
2023/06/25 00:20:41;;;;;;;5.32;2.10;;;;;;;25.69;100.00;99996.13;5052002;28;20196;-73
2023/06/25 00:23:07;;;;;;;5.53;2.13;;;;;;;25.73;100.00;100013.66;5052092;28;20207;-73
2023/06/25 00:25:36;;;;;;;5.95;2.30;;;;;;;25.54;100.00;100013.69;5052178;28;20200;-73
2023/06/25 00:28:07;;;;;;;6.05;2.22;;;;;;;25.53;100.00;100027.88;5049937;28;20689;-72
2023/06/25 00:30:34;;;;;;;5.20;2.00;;;;;;;25.38;100.00;100034.75;5051748;28;20228;-72
2023/06/25 00:33:02;;;;;;;6.85;2.40;;;;;;;25.37;100.00;100026.84;5051662;28;20203;-73
2023/06/25 00:35:39;;;;;;;5.63;2.35;;;;;;;25.01;100.00;100011.66;5051111;28;20204;-72
2023/06/25 00:38:06;;;;;;;6.40;2.33;;;;;;;24.95;100.00;100034.97;5051534;28;20235;-73
2023/06/25 00:40:33;;;;;;;4.95;1.90;;;;;;;24.85;100.00;100028.34;5051816;28;20207;-72
2023/06/25 00:43:01;;;;;;;5.05;1.95;;;;;;;25.03;100.00;100036.34;5051660;28;20199;-72
2023/06/25 00:45:28;;;;;;;5.60;2.90;;;;;;;24.80;100.00;100017.91;5051575;28;20227;-72
2023/06/25 00:47:55;;;;;;;4.85;1.98;;;;;;;24.99;100.00;100040.06;5051763;28;20302;-72
2023/06/25 00:50:25;;;;;;;3.42;1.80;;;;;;;24.90;100.00;100045.75;5051777;28;20227;-73
2023/06/25 00:52:52;;;;;;;4.32;1.90;;;;;;;24.92;100.00;100035.97;5051467;28;20682;-72
2023/06/25 00:55:20;;;;;;;5.20;2.15;;;;;;;24.83;100.00;100039.00;5049413;28;20586;-72
2023/06/25 00:57:47;;;;;;;4.13;1.88;;;;;;;24.63;100.00;100023.09;5049327;28;20658;-72
2023/06/25 01:00:17;;;;;;;6.10;2.22;;;;;;;24.94;100.00;100043.84;5051323;28;20634;-72
2023/06/25 01:02:49;;;;;;;5.90;2.15;;;;;;;24.83;100.00;100049.63;5051252;28;20662;-72
2023/06/25 01:05:24;;;;;;;5.53;2.22;;;;;;;24.81;100.00;100037.31;5050204;28;20289;-72
2023/06/25 01:07:53;;;;;;;6.00;2.17;;;;;;;24.82;100.00;100065.59;5051125;28;20598;-73
2023/06/25 01:10:21;;;;;;;6.20;2.50;;;;;;;24.86;100.00;100070.72;5049223;28;20203;-72
2023/06/25 01:12:47;;;;;;;4.93;1.88;;;;;;;24.86;100.00;100073.38;5050933;28;20207;-72
2023/06/25 01:15:16;;;;;;;5.05;2.20;;;;;;;25.00;100.00;100076.28;5051169;28;20211;-72
2023/06/25 01:17:43;;;;;;;5.13;2.00;;;;;;;24.72;100.00;100078.41;5050816;28;20195;-72
2023/06/25 01:20:11;;;;;;;6.55;2.30;;;;;;;24.72;100.00;100064.25;5050989;28;20191;-72
2023/06/25 01:22:41;;;;;;;7.57;2.63;;;;;;;24.87;100.00;100076.88;5050773;28;20245;-73
2023/06/25 01:25:08;;;;;;;6.50;2.33;;;;;;;24.61;100.00;100054.94;5050873;28;20231;-72
2023/06/25 01:27:36;;;;;;;5.63;2.10;;;;;;;24.64;100.00;100078.72;5050920;28;20195;-72
2023/06/25 01:30:05;;;;;;;6.70;2.30;;;;;;;24.60;100.00;100086.84;5050637;28;20207;-72
2023/06/25 01:32:32;;;;;;;5.70;2.03;;;;;;;24.41;100.00;100080.59;5050785;28;20195;-72
2023/06/25 01:34:59;;;;;;;7.28;2.53;;;;;;;24.35;100.00;100059.66;5050546;28;20196;-72
2023/06/25 01:37:28;;;;;;;5.05;2.17;;;;;;;24.50;100.00;100074.91;5032107;28;20211;-72
2023/06/25 01:39:57;;;;;;;6.10;2.15;;;;;;;24.51;100.00;100077.50;5050453;28;20236;-73
2023/06/25 01:42:23;;;;;;;7.47;2.42;;;;;;;24.48;100.00;100080.28;5050916;28;20199;-73
2023/06/25 01:44:50;;;;;;;11.10;4.05;;;;;;;24.58;100.00;100078.94;5050277;28;20210;-72
2023/06/25 01:47:17;;;;;;;4.72;1.90;;;;;;;24.45;100.00;100079.53;5050279;28;20207;-72
2023/06/25 01:49:44;;;;;;;5.38;1.95;;;;;;;24.39;100.00;100085.09;5050436;28;20192;-72
2023/06/25 01:52:11;;;;;;;5.03;2.03;;;;;;;24.36;100.00;100077.28;5050530;28;20203;-72
2023/06/25 01:54:37;;;;;;;6.40;2.28;;;;;;;24.42;100.00;100085.84;5050630;28;20203;-72
2023/06/25 01:57:06;;;;;;;5.35;2.00;;;;;;;24.53;100.00;100083.59;5050676;28;20210;-72
2023/06/25 01:59:34;;;;;;;6.55;2.30;;;;;;;24.33;100.00;100082.72;5048429;28;20226;-72
2023/06/25 02:02:01;;;;;;;6.78;2.28;;;;;;;24.31;100.00;100058.91;5050497;28;20290;-72
2023/06/25 02:04:28;;;;;;;6.22;2.20;;;;;;;24.29;100.00;100078.47;5031786;28;20195;-73
2023/06/25 02:06:55;;;;;;;6.72;3.00;;;;;;;24.19;100.00;100072.66;5050247;28;20199;-72
2023/06/25 02:09:22;;;;;;;6.72;2.28;;;;;;;24.23;100.00;100071.59;5050602;28;20309;-73
2023/06/25 02:11:49;;;;;;;7.00;2.35;;;;;;;24.21;100.00;100067.31;5050289;28;20203;-72
2023/06/25 02:14:17;;;;;;;22.73;4.45;;;;;;;24.31;100.00;100069.50;5050324;28;20210;-72
2023/06/25 02:16:44;;;;;;;7.20;2.45;;;;;;;24.17;100.00;100040.06;5050155;28;20665;-72
2023/06/25 02:19:11;;;;;;;7.45;2.55;;;;;;;24.19;100.00;100065.56;5031393;28;20230;-72
2023/06/25 02:21:38;;;;;;;6.85;2.42;;;;;;;24.25;100.00;100068.91;5050096;28;20204;-72
2023/06/25 02:24:05;;;;;;;6.53;2.25;;;;;;;24.31;100.00;100058.91;5048230;28;20218;-72
2023/06/25 02:26:32;;;;;;;6.47;2.20;;;;;;;24.26;100.00;100065.34;5050084;28;20278;-72
2023/06/25 02:28:59;;;;;;;6.85;2.42;;;;;;;24.25;100.00;100055.66;5050193;28;20213;-72
2023/06/25 02:31:28;;;;;;;6.38;2.22;;;;;;;24.42;100.00;100063.75;5049880;28;20246;-73
2023/06/25 02:33:54;;;;;;;4.30;1.73;;;;;;;24.27;100.00;100062.63;5050087;28;20203;-71
2023/06/25 02:36:21;;;;;;;6.47;2.42;;;;;;;24.17;100.00;100059.50;5050225;28;20211;-74
2023/06/25 02:38:49;;;;;;;4.68;1.88;;;;;;;24.15;100.00;100058.66;5031407;28;20226;-73
2023/06/25 02:41:16;;;;;;;7.18;2.38;;;;;;;24.09;100.00;100056.25;5049956;28;20218;-73
2023/06/25 02:43:43;;;;;;;6.15;2.08;;;;;;;24.08;100.00;100057.16;5049908;28;20202;-73
2023/06/25 02:46:10;;;;;;;6.82;2.30;;;;;;;23.61;100.00;99969.06;5050052;28;20199;-72
2023/06/25 02:48:42;;;;;;;6.50;2.35;;;;;;;24.04;100.00;100029.06;5049806;28;20226;-72
2023/06/25 02:51:09;;;;;;;8.30;2.42;;;;;;;24.09;100.00;100050.94;5049861;28;20241;-72
2023/06/25 02:53:36;;;;;;;6.65;2.28;;;;;;;24.15;100.00;100053.38;5049957;28;20195;-72
2023/06/25 02:56:03;;;;;;;6.82;2.30;;;;;;;24.23;100.00;100050.41;5049858;28;20680;-72
2023/06/25 02:58:30;;;;;;;6.85;2.40;;;;;;;24.34;100.00;100047.31;5052943;28;20661;-72
2023/06/25 03:00:56;;;;;;;6.60;2.22;;;;;;;24.32;100.00;100049.19;5051463;28;20195;-72
2023/06/25 03:03:23;;;;;;;8.07;2.50;;;;;;;24.18;100.00;100041.81;5034958;28;20191;-72
2023/06/25 03:05:51;;;;;;;5.15;2.00;;;;;;;24.40;100.00;100050.56;5034858;28;20222;-72
2023/06/25 03:08:18;;;;;;;7.07;2.28;;;;;;;24.51;100.00;100052.75;5053437;28;20206;-72
2023/06/25 03:10:45;;;;;;;5.68;2.13;;;;;;;24.52;100.00;100050.06;5053208;28;20206;-73
2023/06/25 03:13:12;;;;;;;6.45;2.28;;;;;;;24.58;100.00;100048.91;5053444;28;20235;-74
2023/06/25 03:15:39;;;;;;;8.38;2.63;;;;;;;24.88;100.00;100044.97;5034549;28;20234;-74
2023/06/25 03:18:06;;;;;;;6.35;2.28;;;;;;;24.89;100.00;100024.63;5053530;28;20199;-74
2023/06/25 03:20:33;;;;;;;5.50;2.33;;;;;;;25.13;100.00;100040.31;5053239;28;20223;-73
2023/06/25 03:23:01;;;;;;;5.20;2.70;;;;;;;25.59;100.00;100046.19;5053299;28;20203;-73
2023/06/25 03:25:27;;;;;;;5.20;1.85;;;;;;;25.75;100.00;100035.69;5053211;28;20199;-73
2023/06/25 03:27:54;;;;;;;5.75;2.10;;;;;;;26.05;100.00;100050.16;5034590;28;20195;-74
2023/06/25 03:30:21;;;;;;;6.20;2.30;;;;;;;26.11;100.00;100053.34;5053201;28;20231;-74
2023/06/25 03:32:48;;;;;;;4.95;1.85;;;;;;;25.94;100.00;99980.72;5053036;28;20276;-74
2023/06/25 03:35:16;;;;;;;4.97;1.88;;;;;;;26.39;100.00;100046.72;5052999;28;20203;-74
2023/06/25 03:37:43;;;;;;;5.95;2.20;;;;;;;26.11;100.00;100048.03;5052936;28;20200;-74
2023/06/25 03:40:12;;;;;;;5.05;1.98;;;;;;;25.90;100.00;100038.47;5052803;28;20242;-73
2023/06/25 03:42:39;;;;;;;5.88;2.20;;;;;;;25.81;100.00;100020.31;5034295;28;20215;-73
2023/06/25 03:45:08;;;;;;;4.28;1.75;;;;;;;25.50;100.00;100034.19;5052799;28;20689;-74
2023/06/25 03:47:34;;;;;;;6.18;2.35;;;;;;;25.35;100.00;100041.97;5052638;28;20570;-74
2023/06/25 03:50:01;;;;;;;6.70;2.42;;;;;;;25.32;100.00;100036.81;5052838;28;20203;-73
2023/06/25 03:52:28;;;;;;;6.40;2.28;;;;;;;25.25;100.00;100038.91;5052644;28;20199;-76
2023/06/25 03:54:55;;;;;;;5.35;2.00;;;;;;;25.31;100.00;100037.75;5052763;28;20207;-74
2023/06/25 03:57:23;;;;;;;5.28;2.13;;;;;;;25.50;100.00;99996.13;5052787;28;20203;-73
2023/06/25 03:59:50;;;;;;;5.30;1.85;;;;;;;25.61;100.00;100026.56;5052515;28;20313;-73
2023/06/25 04:02:16;;;;;;;6.60;2.47;;;;;;;25.58;100.00;100005.47;5052609;28;20196;-73
2023/06/25 04:04:43;;;;;;;6.97;2.55;;;;;;;25.73;100.00;100030.44;5052417;28;20199;-73
2023/06/25 04:07:10;;;;;;;5.03;2.00;;;;;;;25.71;100.00;100031.47;5052318;28;20199;-73
2023/06/25 04:09:37;;;;;;;4.82;2.00;;;;;;;25.72;100.00;100018.09;5051439;28;20207;-73
2023/06/25 04:12:04;;;;;;;4.55;1.80;;;;;;;25.92;100.00;100033.09;5052580;28;20206;-73
2023/06/25 04:14:32;;;;;;;5.72;2.10;;;;;;;26.11;100.00;100031.25;5052486;28;20195;-73
2023/06/25 04:16:59;;;;;;;6.35;2.85;;;;;;;25.99;100.00;100035.38;5052405;28;20305;-73
2023/06/25 04:19:26;;;;;;;8.05;2.65;;;;;;;26.11;100.00;100045.38;5052177;28;20233;-73
2023/06/25 04:21:53;;;;;;;4.75;1.95;;;;;;;26.15;100.00;100038.13;5033853;28;20203;-75
2023/06/25 04:24:19;;;;;;;5.65;2.50;;;;;;;25.98;100.00;100030.13;5052150;28;20211;-73
2023/06/25 04:26:46;;;;;;;7.15;2.67;;;;;;;26.30;100.00;100048.03;5051942;28;20199;-73
2023/06/25 04:29:13;;;;;;;4.00;1.70;;;;;;;26.37;100.00;100052.09;5052233;28;20222;-73
2023/06/25 04:31:41;;;;;;;5.47;2.05;;;;;;;26.78;100.00;100060.66;5051936;28;20223;-74
2023/06/25 04:34:08;;;;;;;4.55;1.80;;;;;;;26.79;100.00;100056.19;5051874;28;20196;-74
2023/06/25 04:36:35;;;;;;;5.03;2.03;;;;;;;27.07;100.00;100057.34;5033178;28;20265;-74
2023/06/25 04:39:02;;;;;;;4.82;1.85;;;;;;;27.10;100.00;100041.22;5051685;28;20196;-74
2023/06/25 04:41:29;;;;;;;5.30;2.08;;;;;;;27.33;100.00;100063.06;5049586;28;20694;-74
2023/06/25 04:43:55;;;;;;;6.25;2.35;;;;;;;28.01;100.00;100068.13;5051633;28;20693;-74
2023/06/25 04:46:22;;;;;;;5.32;2.38;;;;;;;28.38;100.00;100071.38;5051582;28;20221;-72
2023/06/25 04:48:51;;;;;;;7.13;2.53;;;;;;;28.57;100.00;100077.38;5051539;28;20638;-72
2023/06/25 04:51:17;;;;;;;4.72;2.05;;;;;;;28.34;100.00;100075.19;5051385;28;20671;-72
2023/06/25 04:53:44;;;;;;;6.07;2.40;;;;;;;28.69;100.00;100079.31;5051401;28;20195;-75
2023/06/25 04:56:11;;;;;;;4.53;2.00;;;;;;;29.14;100.00;100088.19;5032909;28;20203;-75
2023/06/25 04:58:38;;;;;;;5.85;2.25;;;;;;;29.48;100.00;100088.72;5051252;28;20199;-75
2023/06/25 05:01:05;;;;;;;4.85;2.13;;;;;;;29.81;100.00;100079.50;5051282;28;20226;-75
2023/06/25 05:03:32;;;;;;;5.47;2.20;;;;;;;29.98;98.94;100076.63;5049214;28;20218;-75
2023/06/25 05:06:00;;;;;;;5.35;2.33;;;;;;;30.39;95.57;100081.94;5051174;28;20199;-74
2023/06/25 05:08:30;;;;;;;4.82;2.15;;;;;;;30.84;91.50;100084.22;5051211;28;20202;-75
2023/06/25 05:10:57;;;;;;;4.47;1.98;;;;;;;30.04;95.20;100083.41;5051141;28;20199;-75
2023/06/25 05:13:24;;;;;;;5.32;2.20;;;;;;;29.52;100.00;100094.72;5050983;28;20203;-74
2023/06/25 05:15:50;;;;;;;6.28;2.40;;;;;;;29.52;98.75;100055.50;5050920;28;20198;-74
2023/06/25 05:18:17;;;;;;;4.78;1.95;;;;;;;29.29;99.00;100095.28;5051121;28;20222;-74
2023/06/25 05:20:44;;;;;;;4.30;1.92;;;;;;;29.55;98.72;100091.84;5051254;28;20297;-75
2023/06/25 05:23:12;;;;;;;5.97;2.28;;;;;;;30.02;96.67;100089.72;5051268;28;20206;-76
2023/06/25 05:25:39;;;;;;;9.63;2.65;;;;;;;29.98;96.59;100082.84;5051026;28;20692;-75
2023/06/25 05:28:06;;;;;;;4.60;2.00;;;;;;;29.34;100.00;100069.16;5050913;28;20652;-75
2023/06/25 05:30:33;;;;;;;4.75;2.20;;;;;;;29.84;99.04;100081.97;5050796;28;20239;-76
2023/06/25 05:33:00;;;;;;;4.65;2.05;;;;;;;30.09;96.15;100089.31;5050861;28;20355;-74
2023/06/25 05:35:28;;;;;;;3.15;1.50;;;;;;;30.16;95.55;100080.78;5051001;28;20202;-73
2023/06/25 05:37:56;;;;;;;3.95;1.73;;;;;;;30.62;93.15;100088.44;5050796;28;20195;-75
2023/06/25 05:40:24;;;;;;;4.13;1.75;;;;;;;31.15;89.09;100087.47;5050917;28;20269;-75
2023/06/25 05:42:51;;;;;;;6.40;2.25;;;;;;;30.55;90.91;100089.81;5050812;28;20214;-73
2023/06/25 05:45:18;;;;;;;6.88;2.40;;;;;;;30.12;93.90;100078.41;5050540;28;20207;-74
2023/06/25 05:47:44;;;;;;;7.15;2.60;;;;;;;29.49;98.79;100078.88;5052017;28;20251;-74
2023/06/25 05:50:11;;;;;;;6.25;2.38;;;;;;;29.57;100.00;100089.97;5064021;28;20205;-74
2023/06/25 05:52:38;;;;;;;5.47;2.15;;;;;;;29.81;97.04;100087.53;5056081;28;20651;-74
2023/06/25 05:55:06;;;;;;;6.38;2.47;;;;;;;30.35;94.58;100089.31;5069185;28;20209;-74
2023/06/25 05:57:34;;;;;;;3.03;1.60;;;;;;;30.47;93.81;100080.47;5057891;28;20584;-74
2023/06/25 06:00:01;;;;;;;4.93;1.95;;;;;;;29.73;96.90;100082.66;5070306;28;20225;-72
2023/06/25 06:02:27;;;;;;;3.15;1.52;;;;;;;29.89;96.08;100077.25;5070248;28;20208;-73
2023/06/25 06:04:54;;;;;;;5.57;2.20;;;;;;;30.07;93.01;100085.88;5058404;28;20240;-74
2023/06/25 06:07:21;;;;;;;4.18;1.80;;;;;;;30.31;92.23;100089.63;5068101;28;20251;-73
2023/06/25 06:09:48;;;;;;;3.95;1.80;;;;;;;30.65;87.05;100089.09;5070256;28;20206;-73
2023/06/25 06:12:14;;;;;;;5.25;2.13;;;;;;;30.47;89.74;100079.63;5069940;28;20643;-73
2023/06/25 06:14:43;;;;;;;4.05;1.73;;;;;;;30.65;90.14;100086.41;5070310;28;20681;-74
2023/06/25 06:17:10;;;;;;;3.40;1.55;;;;;;;30.19;92.29;100085.91;5070156;28;20676;-73
2023/06/25 06:19:37;;;;;;;4.82;1.95;;;;;;;30.12;93.11;100068.56;5070108;28;20792;-74
2023/06/25 06:22:04;;;;;;;6.72;2.30;;;;;;;30.10;94.66;100074.97;5056852;28;20234;-74
2023/06/25 06:24:31;;;;;;;5.22;2.00;;;;;;;29.81;97.07;100085.72;5046822;28;20206;-73
2023/06/25 06:26:58;;;;;;;5.57;2.03;;;;;;;30.01;93.37;100074.63;5060966;28;20206;-73
2023/06/25 06:29:25;;;;;;;4.15;1.80;;;;;;;29.86;96.23;100078.28;5051202;28;20202;-72
2023/06/25 06:31:53;;;;;;;4.50;1.75;;;;;;;29.80;93.73;100078.66;5071236;28;20295;-74
2023/06/25 06:34:19;;;;;;;5.90;2.17;;;;;;;29.24;98.64;100057.28;5074038;28;20206;-72
2023/06/25 06:36:46;;;;;;;5.07;2.08;;;;;;;29.76;95.30;100077.13;5038774;28;20210;-74
2023/06/25 06:39:14;;;;;;;5.25;2.10;;;;;;;29.64;97.30;100085.94;5073885;28;20195;-75
2023/06/25 06:41:41;;;;;;;2.72;1.42;;;;;;;29.24;100.00;100082.19;5073671;28;20222;-74
2023/06/25 06:44:12;;;;;;;7.78;2.65;;;;;;;29.42;97.77;100058.84;5073612;28;20670;-75
2023/06/25 06:46:39;;;;;;;3.85;1.77;;;;;;;29.08;97.38;100025.31;5059573;28;20198;-75
2023/06/25 06:49:08;;;;;;;5.40;2.17;;;;;;;29.24;97.84;100041.25;5073812;28;20206;-75
2023/06/25 06:51:36;;;;;;;4.38;1.63;;;;;;;29.79;97.81;100071.56;5073590;28;20654;-75
2023/06/25 06:54:03;;;;;;;5.95;2.10;;;;;;;29.78;95.21;100064.53;5073623;28;20202;-75
2023/06/25 06:56:29;;;;;;;5.30;2.00;;;;;;;29.63;92.97;100075.34;5059140;28;20261;-76
2023/06/25 06:58:56;;;;;;;8.63;2.33;;;;;;;29.40;96.55;100050.06;5073790;28;20210;-76
2023/06/25 07:01:23;;;;;;;8.98;2.22;;;;;;;29.40;96.94;100058.06;5073657;28;20233;-75
2023/06/25 07:03:50;;;;;;;9.13;2.22;;;;;;;28.95;99.04;100051.94;5073454;28;20203;-76
2023/06/25 07:06:18;;;;;;;9.88;2.85;;;;;;;28.76;100.00;100064.66;5061871;28;20207;-75
2023/06/25 07:08:44;;;;;;;8.40;2.38;;;;;;;28.31;100.00;100043.34;5069727;28;20738;-76
2023/06/25 07:11:12;;;;;;;8.38;2.28;;;;;;;28.57;100.00;100045.34;5073529;28;20210;-74
2023/06/25 07:13:39;;;;;;;10.43;3.00;;;;;;;28.69;100.00;100051.78;5071199;28;20343;-76
2023/06/25 07:16:06;;;;;;;9.15;2.35;;;;;;;28.61;100.00;100057.53;5061852;28;20207;-74
2023/06/25 07:18:33;;;;;;;7.78;2.20;;;;;;;29.22;100.00;100056.50;5073339;28;20201;-76
2023/06/25 07:21:00;;;;;;;8.30;2.15;;;;;;;29.79;98.85;100043.97;5073457;28;20222;-75
2023/06/25 07:23:28;;;;;;;7.63;2.15;;;;;;;29.81;99.79;100042.06;5038301;28;20202;-75
2023/06/25 07:25:55;;;;;;;5.45;1.77;;;;;;;29.36;99.14;100056.56;5073301;28;20233;-75
2023/06/25 07:28:21;;;;;;;11.77;3.35;;;;;;;29.35;98.47;100044.16;5073431;28;20199;-75
2023/06/25 07:30:49;;;;;;;7.63;2.10;;;;;;;29.77;96.48;100036.06;5037662;28;20255;-76
2023/06/25 07:33:16;;;;;;;7.28;2.10;;;;;;;30.02;93.60;100035.34;5072751;28;20229;-73
2023/06/25 07:35:42;;;;;;;8.30;2.38;;;;;;;29.94;93.42;100032.31;5072619;28;20534;-73
2023/06/25 07:38:09;;;;;;;9.05;2.72;;;;;;;30.19;89.80;100010.16;5037254;28;20639;-72
2023/06/25 07:40:37;;;;;;;6.32;1.85;;;;;;;30.28;88.95;100031.81;5072611;28;20713;-71
2023/06/25 07:43:04;;;;;;;6.80;2.00;;;;;;;30.12;89.99;100032.91;5071939;28;20199;-72
2023/06/25 07:45:31;;;;;;;10.05;2.65;;;;;;;30.13;88.18;100042.66;5072534;28;20199;-73
2023/06/25 07:47:58;;;;;;;7.45;2.08;;;;;;;29.30;92.95;100020.41;5072520;28;20202;-73
2023/06/25 07:50:24;;;;;;;7.28;2.28;;;;;;;29.65;90.04;99996.75;5072435;28;20211;-73
2023/06/25 07:52:51;;;;;;;7.72;2.17;;;;;;;30.03;88.01;100021.03;5072773;28;20661;-72
2023/06/25 07:55:18;;;;;;;7.63;2.15;;;;;;;30.29;87.60;100030.84;5072516;28;20244;-72
2023/06/25 07:57:46;;;;;;;7.03;2.13;;;;;;;29.97;87.21;100000.03;5072505;28;20594;-71
2023/06/25 08:00:14;;;;;;;8.40;2.40;;;;;;;30.45;86.34;100017.31;5072022;28;20280;-72
2023/06/25 08:02:41;;;;;;;7.50;2.30;;;;;;;30.15;85.38;100027.38;5072202;28;20692;-72
2023/06/25 08:05:09;;;;;;;14.50;3.63;;;;;;;29.77;86.83;99995.97;5072056;28;20202;-72
2023/06/25 08:07:36;;;;;;;7.88;2.22;;;;;;;29.54;87.77;100008.13;5028887;28;20231;-72
2023/06/25 08:10:02;;;;;;;7.88;2.20;;;;;;;29.88;86.73;100016.69;5052757;28;20204;-72
2023/06/25 08:12:29;;;;;;;8.38;2.28;;;;;;;30.10;84.72;100013.44;5072092;28;20209;-73
2023/06/25 08:14:58;;;;;;;7.10;2.42;;;;;;;29.84;83.91;100008.00;5072489;28;20205;-70
2023/06/25 08:17:25;;;;;;;5.70;1.92;;;;;;;29.72;84.25;100011.44;5071947;28;20584;-71
2023/06/25 08:19:52;;;;;;;7.75;2.20;;;;;;;29.66;85.87;100001.16;5060577;28;20199;-71
2023/06/25 08:22:18;;;;;;;8.50;2.38;;;;;;;29.76;84.50;100002.25;5069679;28;20209;-73
2023/06/25 08:24:45;;;;;;;5.15;1.67;;;;;;;29.85;83.75;100003.53;5036656;28;20199;-71
2023/06/25 08:27:12;;;;;;;6.05;1.92;;;;;;;29.80;85.66;99998.44;5071718;28;20202;-71
2023/06/25 08:29:38;;;;;;;8.95;2.38;;;;;;;29.71;83.03;99984.81;5036698;28;20203;-71
2023/06/25 08:32:08;;;;;;;6.03;1.85;;;;;;;30.18;82.58;99979.03;5036384;28;20286;-71
2023/06/25 08:34:35;;;;;;;8.25;2.33;;;;;;;29.72;83.95;99987.38;5071838;28;20190;-71
2023/06/25 08:37:01;;;;;;;5.95;1.92;;;;;;;30.07;84.70;99989.59;5036516;28;20757;-73
2023/06/25 08:39:28;;;;;;;7.07;2.03;;;;;;;30.25;82.20;99969.63;5036203;28;20259;-74
2023/06/25 08:41:55;;;;;;;8.10;2.30;;;;;;;30.44;82.87;99976.31;5071496;28;20721;-74
2023/06/25 08:44:22;;;;;;;6.32;1.95;;;;;;;30.23;80.25;99969.72;5071822;28;20206;-71
2023/06/25 08:46:50;;;;;;;6.93;2.47;;;;;;;30.53;82.65;99974.84;5071454;28;20210;-72
2023/06/25 08:49:23;;;;;;;3.28;1.40;;;;;;;30.35;81.42;99970.72;5072489;28;20747;-72
2023/06/25 08:51:53;;;;;;;8.25;2.53;;;;;;;30.46;80.61;99976.22;5071846;28;20260;-75
2023/06/25 08:54:20;;;;;;;7.38;2.20;;;;;;;30.22;82.86;99978.69;5070835;28;20199;-72
2023/06/25 08:56:47;;;;;;;6.13;1.98;;;;;;;30.18;84.80;99973.69;5071316;28;20198;-72
2023/06/25 08:59:14;;;;;;;6.10;1.95;;;;;;;30.04;82.89;99921.09;5071203;28;20243;-72
2023/06/25 09:01:41;;;;;;;5.18;1.83;;;;;;;30.10;82.67;99967.97;5071236;28;20234;-71
2023/06/25 09:04:08;;;;;;;8.93;2.58;;;;;;;30.28;82.57;99956.03;5070961;28;20566;-72
2023/06/25 09:06:40;;;;;;;6.82;2.13;;;;;;;30.53;80.17;99934.69;5057164;28;20608;-72
2023/06/25 09:09:07;;;;;;;6.72;2.22;;;;;;;30.68;80.57;99960.38;5070997;28;20284;-72
2023/06/25 09:11:34;;;;;;;6.50;2.15;;;;;;;30.66;77.05;99967.66;5071018;28;20218;-72
2023/06/25 09:14:02;;;;;;;4.85;1.70;;;;;;;30.57;76.77;99954.94;5070807;28;20202;-72
2023/06/25 09:16:29;;;;;;;7.65;2.55;;;;;;;30.47;76.41;99946.66;5071041;28;20279;-72
2023/06/25 09:18:55;;;;;;;7.03;2.40;;;;;;;30.38;74.73;99946.41;5070784;28;20210;-71
2023/06/25 09:21:22;;;;;;;6.35;2.05;;;;;;;30.41;77.54;99948.88;5070830;28;20232;-71
2023/06/25 09:23:53;;;;;;;8.18;2.55;;;;;;;30.41;76.49;99951.56;5070793;28;20202;-71
2023/06/25 09:26:19;;;;;;;6.03;2.03;;;;;;;30.24;80.55;99943.84;5070696;28;20194;-71
2023/06/25 09:28:51;;;;;;;13.18;2.97;;;;;;;30.45;81.06;99942.38;5035343;28;20260;-71
2023/06/25 09:31:19;;;;;;;5.65;1.90;;;;;;;30.14;78.49;99916.00;5070828;28;20763;-72
2023/06/25 09:33:51;;;;;;;7.10;2.15;;;;;;;30.53;76.26;99926.66;5070814;28;20206;-73
2023/06/25 09:36:18;;;;;;;5.05;1.67;;;;;;;30.32;76.46;99939.66;5057277;28;20281;-73
2023/06/25 09:38:46;;;;;;;6.30;2.17;;;;;;;30.17;75.84;99864.97;5070715;28;20202;-72
2023/06/25 09:41:15;;;;;;;4.78;1.65;;;;;;;30.32;77.90;99936.16;5070687;28;20228;-74
2023/06/25 09:43:43;;;;;;;5.55;1.90;;;;;;;30.32;77.92;99946.84;5070748;28;20277;-73
2023/06/25 09:46:11;;;;;;;5.63;2.13;;;;;;;30.29;78.23;99937.19;5070663;28;20245;-73
2023/06/25 09:48:41;;;;;;;5.80;1.88;;;;;;;30.31;78.14;99929.06;5035512;28;20609;-73
2023/06/25 09:51:12;;;;;;;5.57;1.80;;;;;;;30.74;76.61;99941.22;5068670;28;20214;-78
2023/06/25 09:53:41;;;;;;;7.03;2.58;;;;;;;30.85;78.50;99892.25;5060838;28;20209;-78
2023/06/25 09:56:09;;;;;;;5.60;1.98;;;;;;;31.51;76.58;99937.44;5070433;28;20681;-72
2023/06/25 09:58:38;;;;;;;6.57;2.05;;;;;;;31.33;74.43;99933.41;5070364;28;20259;-72
2023/06/25 10:01:05;;;;;;;4.40;1.60;;;;;;;30.71;71.12;99927.19;5059491;28;20226;-72
2023/06/25 10:03:33;;;;;;;6.95;2.13;;;;;;;30.71;68.75;99937.91;5067482;28;20201;-73
2023/06/25 10:05:59;;;;;;;6.10;1.92;;;;;;;30.27;70.28;99858.88;5051648;28;20285;-72
2023/06/25 10:08:27;;;;;;;7.32;2.08;;;;;;;30.62;75.63;99927.81;5070272;28;20206;-72
2023/06/25 10:10:59;;;;;;;7.75;2.13;;;;;;;31.29;74.59;99924.75;5070552;28;20677;-73
2023/06/25 10:13:26;;;;;;;6.38;2.00;;;;;;;31.42;72.70;99925.59;5052644;28;20245;-72
2023/06/25 10:15:59;;;;;;;6.90;2.10;;;;;;;31.19;72.77;99917.47;5070467;28;20237;-72
2023/06/25 10:18:26;;;;;;;5.32;1.88;;;;;;;31.36;72.82;99926.00;5056427;28;20214;-72
2023/06/25 10:20:57;;;;;;;5.72;2.13;;;;;;;31.39;69.75;99922.28;5069991;28;20237;-73
2023/06/25 10:23:24;;;;;;;3.88;1.83;;;;;;;31.24;71.67;99926.06;5070218;28;20230;-73
2023/06/25 10:25:56;;;;;;;7.30;2.22;;;;;;;31.73;68.96;99913.44;5070309;28;20565;-73
2023/06/25 10:28:30;;;;;;;6.00;2.22;;;;;;;31.67;69.43;99859.44;5069961;28;20210;-73
2023/06/25 10:30:57;;;;;;;5.68;2.03;;;;;;;31.03;67.55;99832.03;5069973;28;20309;-73
2023/06/25 10:33:26;;;;;;;3.05;1.33;;;;;;;31.56;69.80;99913.88;5070212;28;20213;-73
2023/06/25 10:35:56;;;;;;;8.35;2.38;;;;;;;31.91;70.32;99912.06;5056012;28;20198;-73
2023/06/25 10:38:23;;;;;;;5.95;2.05;;;;;;;31.96;65.79;99909.88;5070043;28;20202;-73
2023/06/25 10:40:49;;;;;;;7.55;2.35;;;;;;;31.69;67.93;99903.94;5067880;28;20359;-72
2023/06/25 10:43:18;;;;;;;5.20;1.85;;;;;;;31.36;67.90;99895.66;5058074;28;20226;-72
2023/06/25 10:45:50;;;;;;;7.57;2.22;;;;;;;31.51;69.74;99889.19;5056089;28;20317;-74
2023/06/25 10:48:17;;;;;;;6.30;1.98;;;;;;;31.31;68.07;99900.53;5069989;28;20248;-73
2023/06/25 10:50:45;;;;;;;6.72;2.10;;;;;;;31.44;68.99;99890.59;5069906;28;20206;-73
2023/06/25 10:53:13;;;;;;;8.00;3.53;;;;;;;31.85;66.09;99893.78;5070199;28;20200;-73
2023/06/25 10:55:43;;;;;;;6.10;1.95;;;;;;;31.82;67.60;99893.16;5071970;28;20758;-73
2023/06/25 10:58:10;;;;;;;4.40;1.58;;;;;;;31.99;64.98;99871.25;5069917;28;20201;-73
2023/06/25 11:00:37;;;;;;;5.60;1.90;;;;;;;31.80;66.66;99887.88;5070091;28;20198;-73
2023/06/25 11:03:04;;;;;;;5.90;2.03;;;;;;;31.52;65.04;99871.31;5069921;28;20218;-73
2023/06/25 11:05:35;;;;;;;7.93;2.45;;;;;;;32.01;64.78;99876.47;5069946;28;20669;-73
2023/06/25 11:08:05;;;;;;;9.00;2.67;;;;;;;31.98;64.79;99857.94;5069816;28;20198;-73
2023/06/25 11:10:33;;;;;;;5.38;1.70;;;;;;;31.65;67.71;99881.00;5069796;28;20202;-73
2023/06/25 11:13:00;;;;;;;7.03;2.20;;;;;;;31.57;66.94;99877.19;5070095;28;20199;-74
2023/06/25 11:15:31;;;;;;;7.68;2.28;;;;;;;31.67;67.17;99862.97;5069937;28;20198;-73
2023/06/25 11:17:58;;;;;;;7.45;2.22;;;;;;;31.69;69.34;99866.38;5070785;28;20601;-73
2023/06/25 11:20:25;;;;;;;5.97;1.98;;;;;;;31.66;68.44;99858.56;5073343;28;20210;-73
2023/06/25 11:22:55;;;;;;;5.53;1.85;;;;;;;31.55;68.40;99849.63;5073387;28;20283;-73
2023/06/25 11:25:23;;;;;;;5.68;1.95;;;;;;;31.94;67.19;99851.97;5073552;28;20218;-74